EGLF

TAG London Farnborough Airport

Airport
ICAO code
EGLF
IATA Code
FAB
Summary
ICAO Region
EUR
ICAO Territory
Location

Farnborough, England

Serving
Farnborough
Elevation
238 ft
Coordinates
51° 16' 43" N , 0° 46' 18" W
KCC
Metar
EGLF 101020Z 19013KT 160V220 6000 RA FEW035 SCT046 10/08 Q1004

Description

Business Airport to the south west of London which serves as a corporate and private jet hub. Farnborough also hosts the Farnborough International Air Show every 2 years.

Climatology

Temperate Marine climate/Oceanic climate (Köppen climate classification Cfb). Moderately cool summer and comparatively warm winter with a temperature range of only 14°C. Prevailing south-westerly winds from the Atlantic Ocean.

Runways

Designator Length Width Surface Rops
6/24 2440 45 ASP Yes/Yes

Airport map

Aerial View

SKYbrary Partners:

Safety knowledge contributed by: